sensor_id;sensor_type;location;lat;lon;timestamp;P1;durP1;ratioP1;P2;durP2;ratioP2
10094;SDS011;5086;50.830;7.102;2023-04-25T00:06:59;4.53;;;2.45;;
10094;SDS011;5086;50.830;7.102;2023-04-25T00:13:17;8.45;;;2.47;;
10094;SDS011;5086;50.830;7.102;2023-04-25T00:17:12;13.88;;;3.20;;
10094;SDS011;5086;50.830;7.102;2023-04-25T00:22:49;10.90;;;2.55;;
10094;SDS011;5086;50.830;7.102;2023-04-25T00:31:49;4.30;;;2.47;;
10094;SDS011;5086;50.830;7.102;2023-04-25T00:34:19;7.78;;;3.35;;
10094;SDS011;5086;50.830;7.102;2023-04-25T01:01:08;7.75;;;2.55;;
10094;SDS011;5086;50.830;7.102;2023-04-25T01:03:45;10.52;;;4.03;;
10094;SDS011;5086;50.830;7.102;2023-04-25T01:22:15;6.85;;;4.10;;
10094;SDS011;5086;50.830;7.102;2023-04-25T01:35:29;19.48;;;4.15;;
10094;SDS011;5086;50.830;7.102;2023-04-25T01:37:58;12.13;;;4.57;;
10094;SDS011;5086;50.830;7.102;2023-04-25T02:04:14;7.93;;;3.60;;
10094;SDS011;5086;50.830;7.102;2023-04-25T02:19:26;6.68;;;3.08;;
10094;SDS011;5086;50.830;7.102;2023-04-25T02:21:55;12.32;;;3.78;;
10094;SDS011;5086;50.830;7.102;2023-04-25T02:27:36;7.47;;;3.08;;
10094;SDS011;5086;50.830;7.102;2023-04-25T02:30:03;10.63;;;4.63;;
10094;SDS011;5086;50.830;7.102;2023-04-25T02:33:41;7.20;;;3.00;;
10094;SDS011;5086;50.830;7.102;2023-04-25T02:36:02;7.13;;;2.35;;
10094;SDS011;5086;50.830;7.102;2023-04-25T02:41:39;10.32;;;3.50;;
10094;SDS011;5086;50.830;7.102;2023-04-25T02:44:20;12.18;;;3.50;;
10094;SDS011;5086;50.830;7.102;2023-04-25T03:51:53;4.47;;;2.72;;
10094;SDS011;5086;50.830;7.102;2023-04-25T04:01:27;8.90;;;2.80;;
10094;SDS011;5086;50.830;7.102;2023-04-25T04:27:34;6.03;;;2.88;;
10094;SDS011;5086;50.830;7.102;2023-04-25T04:34:00;11.63;;;3.40;;
10094;SDS011;5086;50.830;7.102;2023-04-25T04:36:17;9.30;;;2.92;;
10094;SDS011;5086;50.830;7.102;2023-04-25T04:39:00;7.05;;;2.85;;
10094;SDS011;5086;50.830;7.102;2023-04-25T04:41:56;5.72;;;2.33;;
10094;SDS011;5086;50.830;7.102;2023-04-25T04:47:38;4.13;;;2.30;;
10094;SDS011;5086;50.830;7.102;2023-04-25T04:50:06;5.78;;;2.80;;
10094;SDS011;5086;50.830;7.102;2023-04-25T04:53:11;5.53;;;2.80;;
10094;SDS011;5086;50.830;7.102;2023-04-25T05:00:32;13.15;;;3.00;;
10094;SDS011;5086;50.830;7.102;2023-04-25T05:02:17;9.55;;;3.10;;
10094;SDS011;5086;50.830;7.102;2023-04-25T05:04:55;12.27;;;2.78;;
10094;SDS011;5086;50.830;7.102;2023-04-25T05:07:33;8.30;;;2.80;;
10094;SDS011;5086;50.830;7.102;2023-04-25T05:13:59;10.27;;;3.30;;
10094;SDS011;5086;50.830;7.102;2023-04-25T05:16:26;9.80;;;3.30;;
10094;SDS011;5086;50.830;7.102;2023-04-25T05:18:53;8.35;;;3.22;;
10094;SDS011;5086;50.830;7.102;2023-04-25T05:21:20;12.52;;;3.60;;
10094;SDS011;5086;50.830;7.102;2023-04-25T05:23:47;5.78;;;2.65;;
10094;SDS011;5086;50.830;7.102;2023-04-25T05:26:14;17.80;;;3.25;;
10094;SDS011;5086;50.830;7.102;2023-04-25T05:32:04;22.25;;;3.58;;
10094;SDS011;5086;50.830;7.102;2023-04-25T05:35:03;12.70;;;4.13;;
10094;SDS011;5086;50.830;7.102;2023-04-25T05:37:31;6.47;;;3.30;;
10094;SDS011;5086;50.830;7.102;2023-04-25T05:40:03;4.63;;;3.00;;
10094;SDS011;5086;50.830;7.102;2023-04-25T05:42:56;8.23;;;3.15;;
10094;SDS011;5086;50.830;7.102;2023-04-25T05:46:11;11.38;;;5.95;;
10094;SDS011;5086;50.830;7.102;2023-04-25T05:48:41;5.60;;;2.72;;
10094;SDS011;5086;50.830;7.102;2023-04-25T05:52:29;8.98;;;3.75;;
10094;SDS011;5086;50.830;7.102;2023-04-25T05:54:42;11.55;;;2.80;;
10094;SDS011;5086;50.830;7.102;2023-04-25T05:57:37;13.68;;;3.42;;
10094;SDS011;5086;50.830;7.102;2023-04-25T06:00:07;13.27;;;3.78;;
10094;SDS011;5086;50.830;7.102;2023-04-25T06:03:26;9.27;;;3.20;;
10094;SDS011;5086;50.830;7.102;2023-04-25T06:06:16;11.20;;;3.65;;
10094;SDS011;5086;50.830;7.102;2023-04-25T06:08:43;10.27;;;4.30;;
10094;SDS011;5086;50.830;7.102;2023-04-25T06:11:10;21.55;;;3.45;;
10094;SDS011;5086;50.830;7.102;2023-04-25T06:13:49;7.25;;;3.53;;
10094;SDS011;5086;50.830;7.102;2023-04-25T06:16:19;13.20;;;3.55;;
10094;SDS011;5086;50.830;7.102;2023-04-25T06:18:47;13.57;;;3.38;;
10094;SDS011;5086;50.830;7.102;2023-04-25T06:21:14;9.07;;;3.35;;
10094;SDS011;5086;50.830;7.102;2023-04-25T06:23:41;4.90;;;3.00;;
10094;SDS011;5086;50.830;7.102;2023-04-25T06:26:10;12.43;;;3.42;;
10094;SDS011;5086;50.830;7.102;2023-04-25T06:28:49;10.00;;;3.85;;
10094;SDS011;5086;50.830;7.102;2023-04-25T06:31:30;11.40;;;3.92;;
10094;SDS011;5086;50.830;7.102;2023-04-25T06:34:00;7.13;;;3.70;;
10094;SDS011;5086;50.830;7.102;2023-04-25T06:36:27;9.52;;;3.72;;
10094;SDS011;5086;50.830;7.102;2023-04-25T06:39:08;15.48;;;5.10;;
10094;SDS011;5086;50.830;7.102;2023-04-25T06:41:35;19.48;;;2.92;;
10094;SDS011;5086;50.830;7.102;2023-04-25T06:44:02;8.13;;;3.42;;
10094;SDS011;5086;50.830;7.102;2023-04-25T06:46:29;8.95;;;3.40;;
10094;SDS011;5086;50.830;7.102;2023-04-25T06:48:56;10.50;;;3.70;;
10094;SDS011;5086;50.830;7.102;2023-04-25T06:54:08;10.20;;;3.28;;
10094;SDS011;5086;50.830;7.102;2023-04-25T06:56:35;9.52;;;3.33;;
10094;SDS011;5086;50.830;7.102;2023-04-25T06:59:06;10.73;;;4.18;;
10094;SDS011;5086;50.830;7.102;2023-04-25T07:01:58;21.05;;;4.75;;
10094;SDS011;5086;50.830;7.102;2023-04-25T07:04:39;12.95;;;4.15;;
10094;SDS011;5086;50.830;7.102;2023-04-25T07:07:07;7.65;;;3.58;;
10094;SDS011;5086;50.830;7.102;2023-04-25T07:09:34;9.38;;;3.03;;
10094;SDS011;5086;50.830;7.102;2023-04-25T07:12:01;14.75;;;3.65;;
10094;SDS011;5086;50.830;7.102;2023-04-25T07:14:32;12.63;;;4.13;;
10094;SDS011;5086;50.830;7.102;2023-04-25T07:17:19;6.75;;;3.35;;
10094;SDS011;5086;50.830;7.102;2023-04-25T07:20:01;6.43;;;3.30;;
10094;SDS011;5086;50.830;7.102;2023-04-25T07:22:35;8.05;;;3.15;;
10094;SDS011;5086;50.830;7.102;2023-04-25T07:25:02;9.38;;;4.00;;
10094;SDS011;5086;50.830;7.102;2023-04-25T07:27:51;7.68;;;3.67;;
10094;SDS011;5086;50.830;7.102;2023-04-25T07:30:19;11.38;;;4.60;;
10094;SDS011;5086;50.830;7.102;2023-04-25T07:32:52;17.25;;;4.35;;
10094;SDS011;5086;50.830;7.102;2023-04-25T07:35:25;7.00;;;3.60;;
10094;SDS011;5086;50.830;7.102;2023-04-25T07:37:53;6.20;;;3.80;;
10094;SDS011;5086;50.830;7.102;2023-04-25T07:40:20;11.93;;;3.42;;
10094;SDS011;5086;50.830;7.102;2023-04-25T07:42:48;13.27;;;3.35;;
10094;SDS011;5086;50.830;7.102;2023-04-25T07:45:15;16.58;;;3.30;;
10094;SDS011;5086;50.830;7.102;2023-04-25T07:50:53;5.90;;;3.10;;
10094;SDS011;5086;50.830;7.102;2023-04-25T07:53:39;10.82;;;3.67;;
10094;SDS011;5086;50.830;7.102;2023-04-25T07:56:06;10.00;;;3.45;;
10094;SDS011;5086;50.830;7.102;2023-04-25T07:58:34;6.07;;;3.05;;
10094;SDS011;5086;50.830;7.102;2023-04-25T08:01:01;5.70;;;3.25;;
10094;SDS011;5086;50.830;7.102;2023-04-25T08:03:28;5.03;;;2.97;;
10094;SDS011;5086;50.830;7.102;2023-04-25T08:05:54;4.22;;;2.78;;
10094;SDS011;5086;50.830;7.102;2023-04-25T08:08:21;7.15;;;3.08;;
10094;SDS011;5086;50.830;7.102;2023-04-25T08:10:50;10.68;;;3.45;;
10094;SDS011;5086;50.830;7.102;2023-04-25T08:13:17;6.30;;;3.53;;
10094;SDS011;5086;50.830;7.102;2023-04-25T08:15:43;10.38;;;3.67;;
10094;SDS011;5086;50.830;7.102;2023-04-25T08:18:10;9.90;;;4.22;;
10094;SDS011;5086;50.830;7.102;2023-04-25T08:20:37;26.40;;;3.88;;
10094;SDS011;5086;50.830;7.102;2023-04-25T08:23:05;9.18;;;4.05;;
10094;SDS011;5086;50.830;7.102;2023-04-25T08:25:32;7.70;;;3.70;;
10094;SDS011;5086;50.830;7.102;2023-04-25T08:28:05;6.10;;;2.90;;
10094;SDS011;5086;50.830;7.102;2023-04-25T08:30:32;8.98;;;2.78;;
10094;SDS011;5086;50.830;7.102;2023-04-25T08:33:02;6.70;;;4.00;;
10094;SDS011;5086;50.830;7.102;2023-04-25T08:35:29;16.67;;;5.53;;
10094;SDS011;5086;50.830;7.102;2023-04-25T08:38:00;7.63;;;2.58;;
10094;SDS011;5086;50.830;7.102;2023-04-25T08:40:27;9.63;;;2.88;;
10094;SDS011;5086;50.830;7.102;2023-04-25T08:42:55;11.50;;;2.63;;
10094;SDS011;5086;50.830;7.102;2023-04-25T08:45:25;9.45;;;2.90;;
10094;SDS011;5086;50.830;7.102;2023-04-25T08:47:55;5.38;;;2.85;;
10094;SDS011;5086;50.830;7.102;2023-04-25T08:50:26;9.95;;;3.28;;
10094;SDS011;5086;50.830;7.102;2023-04-25T08:52:55;6.40;;;2.75;;
10094;SDS011;5086;50.830;7.102;2023-04-25T08:55:30;6.63;;;3.15;;
10094;SDS011;5086;50.830;7.102;2023-04-25T08:57:59;4.57;;;3.05;;
10094;SDS011;5086;50.830;7.102;2023-04-25T09:00:28;11.55;;;3.25;;
10094;SDS011;5086;50.830;7.102;2023-04-25T09:02:55;9.30;;;2.80;;
10094;SDS011;5086;50.830;7.102;2023-04-25T09:05:23;6.70;;;2.78;;
10094;SDS011;5086;50.830;7.102;2023-04-25T09:07:51;6.50;;;2.75;;
10094;SDS011;5086;50.830;7.102;2023-04-25T09:10:17;7.88;;;3.25;;
10094;SDS011;5086;50.830;7.102;2023-04-25T09:12:44;15.50;;;3.10;;
10094;SDS011;5086;50.830;7.102;2023-04-25T09:15:28;12.75;;;3.45;;
10094;SDS011;5086;50.830;7.102;2023-04-25T09:17:55;6.55;;;2.65;;
10094;SDS011;5086;50.830;7.102;2023-04-25T09:20:23;10.68;;;3.90;;
10094;SDS011;5086;50.830;7.102;2023-04-25T09:22:50;5.90;;;2.50;;
10094;SDS011;5086;50.830;7.102;2023-04-25T09:25:28;10.57;;;2.40;;
10094;SDS011;5086;50.830;7.102;2023-04-25T09:28:00;9.15;;;2.67;;
10094;SDS011;5086;50.830;7.102;2023-04-25T09:30:32;3.25;;;2.20;;
10094;SDS011;5086;50.830;7.102;2023-04-25T09:33:04;9.90;;;3.03;;
10094;SDS011;5086;50.830;7.102;2023-04-25T09:35:34;9.35;;;3.25;;
10094;SDS011;5086;50.830;7.102;2023-04-25T09:38:06;3.38;;;2.50;;
10094;SDS011;5086;50.830;7.102;2023-04-25T09:40:34;4.80;;;2.35;;
10094;SDS011;5086;50.830;7.102;2023-04-25T09:43:08;4.55;;;2.38;;
10094;SDS011;5086;50.830;7.102;2023-04-25T09:45:42;7.13;;;1.95;;
10094;SDS011;5086;50.830;7.102;2023-04-25T09:48:10;6.65;;;2.38;;
10094;SDS011;5086;50.830;7.102;2023-04-25T09:50:38;5.05;;;2.08;;
10094;SDS011;5086;50.830;7.102;2023-04-25T09:53:05;7.85;;;2.95;;
10094;SDS011;5086;50.830;7.102;2023-04-25T09:55:34;5.50;;;2.20;;
10094;SDS011;5086;50.830;7.102;2023-04-25T09:58:03;6.05;;;2.17;;
10094;SDS011;5086;50.830;7.102;2023-04-25T10:00:32;5.63;;;2.42;;
10094;SDS011;5086;50.830;7.102;2023-04-25T10:03:09;10.00;;;2.30;;
10094;SDS011;5086;50.830;7.102;2023-04-25T10:05:38;10.15;;;2.40;;
10094;SDS011;5086;50.830;7.102;2023-04-25T10:08:06;5.68;;;2.10;;
10094;SDS011;5086;50.830;7.102;2023-04-25T10:10:34;3.58;;;2.05;;
10094;SDS011;5086;50.830;7.102;2023-04-25T10:13:03;2.10;;;1.80;;
10094;SDS011;5086;50.830;7.102;2023-04-25T10:15:32;8.65;;;2.05;;
10094;SDS011;5086;50.830;7.102;2023-04-25T10:18:03;9.38;;;2.00;;
10094;SDS011;5086;50.830;7.102;2023-04-25T10:20:31;5.88;;;2.15;;
10094;SDS011;5086;50.830;7.102;2023-04-25T10:23:03;3.78;;;1.80;;
10094;SDS011;5086;50.830;7.102;2023-04-25T10:25:38;7.15;;;2.40;;
10094;SDS011;5086;50.830;7.102;2023-04-25T10:28:06;3.40;;;2.00;;
10094;SDS011;5086;50.830;7.102;2023-04-25T10:30:33;6.07;;;2.40;;
10094;SDS011;5086;50.830;7.102;2023-04-25T10:32:59;9.25;;;2.10;;
10094;SDS011;5086;50.830;7.102;2023-04-25T10:35:29;5.70;;;2.15;;
10094;SDS011;5086;50.830;7.102;2023-04-25T10:37:58;9.23;;;2.40;;
10094;SDS011;5086;50.830;7.102;2023-04-25T10:40:26;4.57;;;2.20;;
10094;SDS011;5086;50.830;7.102;2023-04-25T10:42:53;7.60;;;1.70;;
10094;SDS011;5086;50.830;7.102;2023-04-25T10:45:21;5.13;;;2.50;;
10094;SDS011;5086;50.830;7.102;2023-04-25T10:47:48;4.75;;;2.08;;
10094;SDS011;5086;50.830;7.102;2023-04-25T10:50:15;3.45;;;2.05;;
10094;SDS011;5086;50.830;7.102;2023-04-25T10:52:44;8.05;;;2.88;;
10094;SDS011;5086;50.830;7.102;2023-04-25T10:55:10;6.18;;;2.20;;
10094;SDS011;5086;50.830;7.102;2023-04-25T10:57:39;6.32;;;2.28;;
10094;SDS011;5086;50.830;7.102;2023-04-25T11:00:13;7.65;;;2.25;;
10094;SDS011;5086;50.830;7.102;2023-04-25T11:02:47;8.40;;;2.47;;
10094;SDS011;5086;50.830;7.102;2023-04-25T11:05:19;5.50;;;2.17;;
10094;SDS011;5086;50.830;7.102;2023-04-25T11:07:51;3.30;;;1.90;;
10094;SDS011;5086;50.830;7.102;2023-04-25T11:10:19;7.65;;;2.53;;
10094;SDS011;5086;50.830;7.102;2023-04-25T11:12:46;6.60;;;2.30;;
10094;SDS011;5086;50.830;7.102;2023-04-25T11:15:13;7.60;;;2.40;;
10094;SDS011;5086;50.830;7.102;2023-04-25T11:17:40;4.18;;;2.25;;
10094;SDS011;5086;50.830;7.102;2023-04-25T11:20:09;2.95;;;2.15;;
10094;SDS011;5086;50.830;7.102;2023-04-25T11:22:40;2.30;;;1.85;;
10094;SDS011;5086;50.830;7.102;2023-04-25T11:28:29;9.77;;;2.03;;
10094;SDS011;5086;50.830;7.102;2023-04-25T11:30:56;4.43;;;1.98;;
10094;SDS011;5086;50.830;7.102;2023-04-25T11:33:24;9.13;;;1.98;;
10094;SDS011;5086;50.830;7.102;2023-04-25T11:35:53;5.43;;;2.10;;
10094;SDS011;5086;50.830;7.102;2023-04-25T11:38:21;3.83;;;1.90;;
10094;SDS011;5086;50.830;7.102;2023-04-25T11:40:51;5.70;;;2.50;;
10094;SDS011;5086;50.830;7.102;2023-04-25T11:43:20;19.45;;;2.00;;
10094;SDS011;5086;50.830;7.102;2023-04-25T11:45:47;9.82;;;2.28;;
10094;SDS011;5086;50.830;7.102;2023-04-25T11:48:15;3.05;;;1.90;;
10094;SDS011;5086;50.830;7.102;2023-04-25T11:50:44;3.33;;;1.98;;
10094;SDS011;5086;50.830;7.102;2023-04-25T11:53:11;2.55;;;1.52;;
10094;SDS011;5086;50.830;7.102;2023-04-25T11:55:38;4.75;;;1.80;;
10094;SDS011;5086;50.830;7.102;2023-04-25T11:58:10;5.20;;;2.00;;
10094;SDS011;5086;50.830;7.102;2023-04-25T12:00:38;3.20;;;1.50;;
10094;SDS011;5086;50.830;7.102;2023-04-25T12:03:11;3.55;;;1.50;;
10094;SDS011;5086;50.830;7.102;2023-04-25T12:05:38;3.50;;;1.63;;
10094;SDS011;5086;50.830;7.102;2023-04-25T12:08:11;9.85;;;1.85;;
10094;SDS011;5086;50.830;7.102;2023-04-25T12:10:39;2.03;;;1.50;;
10094;SDS011;5086;50.830;7.102;2023-04-25T12:13:22;2.88;;;1.58;;
10094;SDS011;5086;50.830;7.102;2023-04-25T12:15:50;5.90;;;1.92;;
10094;SDS011;5086;50.830;7.102;2023-04-25T12:18:18;5.10;;;1.52;;
10094;SDS011;5086;50.830;7.102;2023-04-25T12:20:46;4.75;;;1.90;;
10094;SDS011;5086;50.830;7.102;2023-04-25T12:23:13;3.70;;;1.77;;
10094;SDS011;5086;50.830;7.102;2023-04-25T12:25:41;3.70;;;2.22;;
10094;SDS011;5086;50.830;7.102;2023-04-25T12:28:21;2.70;;;1.92;;
10094;SDS011;5086;50.830;7.102;2023-04-25T12:31:06;10.68;;;2.30;;
10094;SDS011;5086;50.830;7.102;2023-04-25T12:33:34;2.85;;;1.58;;
10094;SDS011;5086;50.830;7.102;2023-04-25T12:36:05;2.33;;;1.70;;
10094;SDS011;5086;50.830;7.102;2023-04-25T12:38:42;2.33;;;1.70;;
10094;SDS011;5086;50.830;7.102;2023-04-25T12:44:08;8.07;;;2.15;;
10094;SDS011;5086;50.830;7.102;2023-04-25T12:46:37;2.03;;;1.77;;
10094;SDS011;5086;50.830;7.102;2023-04-25T12:49:09;2.25;;;1.50;;
10094;SDS011;5086;50.830;7.102;2023-04-25T12:51:40;2.45;;;1.55;;
10094;SDS011;5086;50.830;7.102;2023-04-25T12:57:18;3.67;;;1.77;;
10094;SDS011;5086;50.830;7.102;2023-04-25T12:59:45;6.72;;;1.58;;
10094;SDS011;5086;50.830;7.102;2023-04-25T13:02:15;5.10;;;1.50;;
10094;SDS011;5086;50.830;7.102;2023-04-25T13:04:48;4.82;;;2.35;;
10094;SDS011;5086;50.830;7.102;2023-04-25T13:07:16;4.18;;;1.90;;
10094;SDS011;5086;50.830;7.102;2023-04-25T13:10:50;3.67;;;1.73;;
10094;SDS011;5086;50.830;7.102;2023-04-25T13:12:50;6.45;;;2.03;;
10094;SDS011;5086;50.830;7.102;2023-04-25T13:15:17;1.40;;;1.30;;
10094;SDS011;5086;50.830;7.102;2023-04-25T13:17:47;9.75;;;2.00;;
10094;SDS011;5086;50.830;7.102;2023-04-25T13:20:15;4.90;;;1.70;;
10094;SDS011;5086;50.830;7.102;2023-04-25T13:22:44;6.15;;;1.52;;
10094;SDS011;5086;50.830;7.102;2023-04-25T13:25:13;2.58;;;1.50;;
10094;SDS011;5086;50.830;7.102;2023-04-25T13:27:42;2.20;;;1.80;;
10094;SDS011;5086;50.830;7.102;2023-04-25T13:30:11;1.25;;;1.15;;
10094;SDS011;5086;50.830;7.102;2023-04-25T13:32:39;2.25;;;1.40;;
10094;SDS011;5086;50.830;7.102;2023-04-25T13:35:18;2.55;;;1.38;;
10094;SDS011;5086;50.830;7.102;2023-04-25T13:38:04;1.90;;;1.50;;
10094;SDS011;5086;50.830;7.102;2023-04-25T13:40:31;1.85;;;1.20;;
10094;SDS011;5086;50.830;7.102;2023-04-25T13:42:59;3.05;;;1.50;;
10094;SDS011;5086;50.830;7.102;2023-04-25T13:45:26;3.97;;;1.50;;
10094;SDS011;5086;50.830;7.102;2023-04-25T13:47:56;6.72;;;1.73;;
10094;SDS011;5086;50.830;7.102;2023-04-25T13:50:28;2.42;;;1.40;;
10094;SDS011;5086;50.830;7.102;2023-04-25T13:53:00;4.95;;;2.22;;
10094;SDS011;5086;50.830;7.102;2023-04-25T13:55:33;1.52;;;1.40;;
10094;SDS011;5086;50.830;7.102;2023-04-25T13:58:33;2.35;;;1.70;;
10094;SDS011;5086;50.830;7.102;2023-04-25T14:01:06;3.35;;;1.63;;
10094;SDS011;5086;50.830;7.102;2023-04-25T14:03:34;3.70;;;1.50;;
10094;SDS011;5086;50.830;7.102;2023-04-25T14:09:04;2.00;;;1.60;;
10094;SDS011;5086;50.830;7.102;2023-04-25T14:12:12;2.75;;;1.50;;
10094;SDS011;5086;50.830;7.102;2023-04-25T14:14:47;1.50;;;1.40;;
10094;SDS011;5086;50.830;7.102;2023-04-25T14:17:28;3.47;;;1.40;;
10094;SDS011;5086;50.830;7.102;2023-04-25T14:20:22;1.70;;;1.50;;
10094;SDS011;5086;50.830;7.102;2023-04-25T14:26:19;2.70;;;1.40;;
10094;SDS011;5086;50.830;7.102;2023-04-25T14:28:46;1.95;;;1.73;;
10094;SDS011;5086;50.830;7.102;2023-04-25T14:31:14;1.48;;;1.38;;
10094;SDS011;5086;50.830;7.102;2023-04-25T14:33:53;7.93;;;1.70;;
10094;SDS011;5086;50.830;7.102;2023-04-25T14:36:21;4.05;;;1.38;;
10094;SDS011;5086;50.830;7.102;2023-04-25T14:39:05;2.22;;;1.33;;
10094;SDS011;5086;50.830;7.102;2023-04-25T14:47:33;2.17;;;1.20;;
10094;SDS011;5086;50.830;7.102;2023-04-25T14:50:14;1.80;;;1.33;;
10094;SDS011;5086;50.830;7.102;2023-04-25T14:52:49;3.90;;;2.05;;
10094;SDS011;5086;50.830;7.102;2023-04-25T14:55:18;5.75;;;2.00;;
10094;SDS011;5086;50.830;7.102;2023-04-25T15:03:47;1.60;;;1.45;;
10094;SDS011;5086;50.830;7.102;2023-04-25T15:06:28;1.13;;;1.00;;
10094;SDS011;5086;50.830;7.102;2023-04-25T15:08:58;3.80;;;1.50;;
10094;SDS011;5086;50.830;7.102;2023-04-25T15:11:39;4.38;;;1.30;;
10094;SDS011;5086;50.830;7.102;2023-04-25T15:14:11;5.18;;;1.48;;
10094;SDS011;5086;50.830;7.102;2023-04-25T15:17:06;1.20;;;1.08;;
10094;SDS011;5086;50.830;7.102;2023-04-25T15:22:49;1.67;;;1.20;;
10094;SDS011;5086;50.830;7.102;2023-04-25T15:25:19;5.65;;;1.10;;
10094;SDS011;5086;50.830;7.102;2023-04-25T15:30:48;3.20;;;1.10;;
10094;SDS011;5086;50.830;7.102;2023-04-25T15:33:16;2.85;;;1.05;;
10094;SDS011;5086;50.830;7.102;2023-04-25T15:36:19;1.20;;;1.10;;
10094;SDS011;5086;50.830;7.102;2023-04-25T15:48:18;3.10;;;1.35;;
10094;SDS011;5086;50.830;7.102;2023-04-25T16:10:40;3.88;;;1.80;;
10094;SDS011;5086;50.830;7.102;2023-04-25T16:27:11;1.30;;;1.20;;
10094;SDS011;5086;50.830;7.102;2023-04-25T16:29:41;1.30;;;1.20;;
10094;SDS011;5086;50.830;7.102;2023-04-25T16:35:24;15.10;;;1.55;;
10094;SDS011;5086;50.830;7.102;2023-04-25T16:38:07;1.10;;;1.10;;
10094;SDS011;5086;50.830;7.102;2023-04-25T17:41:00;3.55;;;1.48;;
10094;SDS011;5086;50.830;7.102;2023-04-25T17:43:56;2.33;;;1.20;;
10094;SDS011;5086;50.830;7.102;2023-04-25T17:49:55;1.40;;;1.30;;
10094;SDS011;5086;50.830;7.102;2023-04-25T18:01:12;1.75;;;1.15;;
10094;SDS011;5086;50.830;7.102;2023-04-25T18:04:00;1.75;;;1.30;;
10094;SDS011;5086;50.830;7.102;2023-04-25T18:10:04;1.67;;;1.17;;
10094;SDS011;5086;50.830;7.102;2023-04-25T18:34:19;1.60;;;1.50;;
10094;SDS011;5086;50.830;7.102;2023-04-25T19:00:50;1.67;;;1.27;;
10094;SDS011;5086;50.830;7.102;2023-04-25T19:48:06;3.15;;;1.50;;
10094;SDS011;5086;50.830;7.102;2023-04-25T19:50:34;1.63;;;1.33;;
10094;SDS011;5086;50.830;7.102;2023-04-25T19:53:02;2.72;;;1.38;;
10094;SDS011;5086;50.830;7.102;2023-04-25T19:55:31;1.88;;;1.35;;
10094;SDS011;5086;50.830;7.102;2023-04-25T19:58:00;1.55;;;1.30;;
10094;SDS011;5086;50.830;7.102;2023-04-25T20:00:28;1.85;;;1.38;;
10094;SDS011;5086;50.830;7.102;2023-04-25T20:02:55;4.32;;;1.40;;
10094;SDS011;5086;50.830;7.102;2023-04-25T20:14:36;1.75;;;1.50;;
10094;SDS011;5086;50.830;7.102;2023-04-25T20:18:10;5.43;;;1.55;;
10094;SDS011;5086;50.830;7.102;2023-04-25T20:20:49;2.13;;;1.85;;
10094;SDS011;5086;50.830;7.102;2023-04-25T20:29:46;2.95;;;1.55;;
10094;SDS011;5086;50.830;7.102;2023-04-25T20:38:50;2.72;;;1.65;;
10094;SDS011;5086;50.830;7.102;2023-04-25T21:52:14;8.98;;;3.20;;
10094;SDS011;5086;50.830;7.102;2023-04-25T21:54:54;10.05;;;3.83;;
10094;SDS011;5086;50.830;7.102;2023-04-25T22:11:13;2.38;;;1.67;;
10094;SDS011;5086;50.830;7.102;2023-04-25T22:16:51;2.38;;;1.80;;
